createdAt,value
2016-11-19T00:00:40.181Z,928.62
2016-11-19T00:01:51.626Z,928.58
2016-11-19T00:03:02.676Z,928.62
2016-11-19T00:04:13.378Z,928.53
2016-11-19T00:05:24.113Z,928.59
2016-11-19T00:06:35.240Z,928.58
2016-11-19T00:07:45.970Z,928.62
2016-11-19T00:08:56.744Z,928.6
2016-11-19T00:10:07.430Z,928.65
2016-11-19T00:11:18.173Z,928.74
2016-11-19T00:12:28.962Z,928.7
2016-11-19T00:13:40.237Z,928.67
2016-11-19T00:14:50.893Z,928.63
2016-11-19T00:16:02.000Z,928.69
2016-11-19T00:17:12.727Z,928.63
2016-11-19T00:18:38.903Z,928.69
2016-11-19T00:19:50.048Z,928.65
2016-11-19T00:21:01.143Z,928.73
2016-11-19T00:22:12.184Z,928.76
2016-11-19T00:23:22.808Z,928.81
2016-11-19T00:24:48.425Z,928.79
2016-11-19T00:25:59.168Z,928.76
2016-11-19T00:27:24.415Z,928.78
2016-11-19T00:31:21.439Z,928.77
2016-11-19T00:32:32.589Z,928.76
2016-11-19T00:33:44.382Z,928.71
2016-11-19T00:34:55.067Z,928.77
2016-11-19T00:36:05.803Z,928.79
2016-11-19T00:37:16.607Z,928.82
2016-11-19T00:38:27.820Z,928.82
2016-11-19T00:39:38.554Z,928.78
2016-11-19T00:40:49.763Z,928.76
2016-11-19T00:42:01.283Z,928.75
2016-11-19T00:43:11.898Z,928.78
2016-11-19T00:44:22.574Z,928.81
2016-11-19T00:45:33.179Z,928.7
2016-11-19T00:46:44.436Z,928.79
2016-11-19T00:47:55.615Z,928.81
2016-11-19T00:49:07.082Z,928.82
2016-11-19T00:50:18.234Z,928.7
2016-11-19T00:51:29.389Z,928.69
2016-11-19T00:52:40.536Z,928.73
2016-11-19T00:53:51.641Z,928.69
2016-11-19T00:55:02.343Z,928.68
2016-11-19T00:56:13.045Z,928.65
2016-11-19T00:57:24.166Z,928.64
2016-11-19T00:58:34.912Z,928.73
2016-11-19T00:59:45.625Z,928.63
2016-11-19T01:00:56.736Z,928.64
2016-11-19T01:02:07.784Z,928.68
2016-11-19T01:03:19.384Z,928.71
2016-11-19T01:04:30.119Z,928.77
2016-11-19T01:05:40.863Z,928.74
2016-11-19T01:06:52.370Z,928.6
2016-11-19T01:08:03.077Z,928.68
2016-11-19T01:09:14.216Z,928.78
2016-11-19T01:10:25.802Z,928.72
2016-11-19T01:11:36.886Z,928.7
2016-11-19T01:12:48.096Z,928.7
2016-11-19T01:13:59.589Z,928.72
2016-11-19T01:15:10.327Z,928.75
2016-11-19T01:16:21.897Z,928.68
2016-11-19T01:17:32.962Z,928.69
2016-11-19T01:18:44.110Z,928.7
2016-11-19T01:19:55.616Z,928.64
2016-11-19T01:21:06.737Z,928.66
2016-11-19T01:22:17.864Z,928.66
2016-11-19T01:23:28.544Z,928.71
2016-11-19T01:24:39.220Z,928.73
2016-11-19T01:25:50.359Z,928.7
2016-11-19T01:27:01.005Z,928.7
2016-11-19T01:28:12.026Z,928.69
2016-11-19T01:29:23.478Z,928.6
2016-11-19T01:30:34.249Z,928.6
2016-11-19T01:31:45.456Z,928.62
2016-11-19T01:32:56.219Z,928.69
2016-11-19T01:34:07.131Z,928.6
2016-11-19T01:35:17.803Z,928.66
2016-11-19T01:36:28.900Z,928.61
2016-11-19T01:37:39.997Z,928.6
2016-11-19T01:38:50.733Z,928.6
2016-11-19T01:40:01.848Z,928.62
2016-11-19T01:41:12.597Z,928.62
2016-11-19T01:42:23.319Z,928.56
2016-11-19T01:43:34.098Z,928.58
2016-11-19T01:44:44.866Z,928.51
2016-11-19T01:45:56.395Z,928.6
2016-11-19T01:47:07.071Z,928.58
2016-11-19T01:48:17.774Z,928.62
2016-11-19T01:49:28.920Z,928.62
2016-11-19T01:50:40.040Z,928.62
2016-11-19T01:51:50.806Z,928.71
2016-11-19T01:53:01.523Z,928.7
2016-11-19T01:54:12.261Z,928.69
2016-11-19T01:55:23.017Z,928.64
2016-11-19T01:56:34.129Z,928.6
2016-11-19T01:57:45.031Z,928.61
2016-11-19T01:58:56.936Z,928.65
2016-11-19T02:00:08.028Z,928.63
2016-11-19T02:01:19.110Z,928.58
2016-11-19T02:02:29.810Z,928.58
2016-11-19T02:03:40.561Z,928.48
2016-11-19T02:04:51.299Z,928.46
2016-11-19T02:06:02.053Z,928.43
2016-11-19T02:08:39.180Z,928.54
2016-11-19T02:09:49.918Z,928.4
2016-11-19T02:11:01.442Z,928.5
2016-11-19T02:12:12.163Z,928.4
2016-11-19T02:13:22.929Z,928.44
2016-11-19T02:14:34.138Z,928.36
2016-11-19T02:15:45.263Z,928.38
2016-11-19T02:16:56.430Z,928.42
2016-11-19T02:18:07.163Z,928.28
2016-11-19T02:19:17.846Z,928.35
2016-11-19T02:20:29.092Z,928.39
2016-11-19T02:21:39.817Z,928.33
2016-11-19T02:22:50.880Z,928.25
2016-11-19T02:24:02.013Z,928.33
2016-11-19T02:25:13.170Z,928.18
2016-11-19T02:26:23.854Z,928.25
2016-11-19T02:27:34.572Z,928.26
2016-11-19T02:28:45.737Z,928.23
2016-11-19T02:29:56.456Z,928.13
2016-11-19T02:31:08.662Z,928.1
2016-11-19T02:32:19.763Z,928.09
2016-11-19T02:33:30.827Z,928.15
2016-11-19T02:34:41.536Z,928.11
2016-11-19T02:35:52.644Z,928.07
2016-11-19T02:37:04.109Z,928.11
2016-11-19T02:38:15.296Z,928.08
2016-11-19T02:39:26.042Z,928.09
2016-11-19T02:40:37.537Z,928.03
2016-11-19T02:41:48.245Z,928.13
2016-11-19T02:43:13.454Z,928.1
2016-11-19T02:44:24.774Z,928.07
2016-11-19T02:45:35.494Z,928.09
2016-11-19T02:46:46.576Z,928.17
2016-11-19T02:47:58.038Z,928.09
2016-11-19T02:49:08.751Z,928.16
2016-11-19T02:50:19.840Z,928.16
2016-11-19T02:51:30.561Z,928.14
2016-11-19T02:52:41.281Z,928.12
2016-11-19T02:53:52.104Z,928.14
2016-11-19T02:55:02.911Z,928.06
2016-11-19T02:56:13.918Z,928
2016-11-19T02:57:24.977Z,927.96
2016-11-19T02:58:36.382Z,927.95
2016-11-19T03:01:12.752Z,927.96
2016-11-19T03:02:23.873Z,927.97
2016-11-19T03:03:35.581Z,927.98
2016-11-19T03:04:46.315Z,927.96
2016-11-19T03:05:57.038Z,927.96
2016-11-19T03:07:08.086Z,927.94
2016-11-19T03:08:19.602Z,927.95
2016-11-19T03:09:31.094Z,927.94
2016-11-19T03:10:41.758Z,927.87
2016-11-19T03:11:52.536Z,927.9
2016-11-19T03:13:03.287Z,927.85
2016-11-19T03:14:13.936Z,927.9
2016-11-19T03:15:24.621Z,927.92
2016-11-19T03:16:35.360Z,927.94
2016-11-19T03:17:46.082Z,927.9
2016-11-19T03:18:56.833Z,927.87
2016-11-19T03:20:07.956Z,927.84
2016-11-19T03:21:19.035Z,927.88
2016-11-19T03:22:29.718Z,927.87
2016-11-19T03:23:40.821Z,927.84
2016-11-19T03:24:52.270Z,927.76
2016-11-19T03:26:03.268Z,927.74
2016-11-19T03:27:13.987Z,927.66
2016-11-19T03:28:25.438Z,927.66
2016-11-19T03:29:36.266Z,927.61
2016-11-19T03:30:47.366Z,927.62
2016-11-19T03:31:58.924Z,927.6
2016-11-19T03:33:09.740Z,927.63
2016-11-19T03:34:20.456Z,927.61
2016-11-19T03:35:31.173Z,927.53
2016-11-19T03:36:42.602Z,927.47
2016-11-19T03:37:54.382Z,927.48
2016-11-19T03:39:05.476Z,927.49
2016-11-19T03:40:16.559Z,927.44
2016-11-19T03:41:27.945Z,927.36
2016-11-19T03:42:39.398Z,927.35
2016-11-19T03:43:50.548Z,927.34
2016-11-19T03:45:02.392Z,927.34
2016-11-19T03:46:13.109Z,927.36
2016-11-19T03:47:24.183Z,927.37
2016-11-19T03:48:35.627Z,927.38
2016-11-19T03:49:47.110Z,927.36
2016-11-19T03:50:58.174Z,927.35
2016-11-19T03:52:08.833Z,927.34
2016-11-19T03:53:19.748Z,927.33
2016-11-19T03:54:30.845Z,927.27
2016-11-19T03:55:42.354Z,927.23
2016-11-19T03:56:53.126Z,927.24
2016-11-19T03:58:03.782Z,927.25
2016-11-19T03:59:15.051Z,927.27
2016-11-19T04:00:25.827Z,927.19
2016-11-19T04:01:36.499Z,927.16
2016-11-19T04:02:47.621Z,927.21
2016-11-19T04:03:58.287Z,927.11
2016-11-19T04:05:10.052Z,927.11
2016-11-19T04:06:20.749Z,927.1
2016-11-19T04:07:31.801Z,927.08
2016-11-19T04:08:42.520Z,927.1
2016-11-19T04:09:53.531Z,926.99
2016-11-19T04:11:04.556Z,927.02
2016-11-19T04:12:15.288Z,927.05
2016-11-19T04:13:26.790Z,927.02
2016-11-19T04:14:38.263Z,927.06
2016-11-19T04:15:48.974Z,927.05
2016-11-19T04:18:25.345Z,927.14
2016-11-19T04:19:36.410Z,927.13
2016-11-19T04:20:47.523Z,927.05
2016-11-19T04:21:58.273Z,926.99
2016-11-19T04:23:08.988Z,927.03
2016-11-19T04:24:19.661Z,927.07
2016-11-19T04:25:30.355Z,927.11
2016-11-19T04:26:41.073Z,927.06
2016-11-19T04:27:51.823Z,927.1
2016-11-19T04:29:02.926Z,927.08
2016-11-19T04:30:14.031Z,927.03
2016-11-19T04:31:25.151Z,927.02
2016-11-19T04:32:36.147Z,927.01
2016-11-19T04:33:47.471Z,926.93
2016-11-19T04:34:58.510Z,926.92
2016-11-19T04:36:23.721Z,926.95
2016-11-19T04:37:34.928Z,926.93
2016-11-19T04:38:46.588Z,926.94
2016-11-19T04:39:58.299Z,926.92
2016-11-19T04:41:09.339Z,926.87
2016-11-19T04:42:20.746Z,926.92
2016-11-19T04:43:31.473Z,926.95
2016-11-19T04:44:42.179Z,926.96
2016-11-19T04:45:53.309Z,926.91
2016-11-19T04:47:04.034Z,926.91
2016-11-19T04:48:15.110Z,926.86
2016-11-19T04:49:25.783Z,926.77
2016-11-19T04:50:36.478Z,926.77
2016-11-19T04:51:47.166Z,926.78
2016-11-19T04:52:57.903Z,926.77
2016-11-19T04:54:09.082Z,926.72
2016-11-19T04:55:19.842Z,926.7
2016-11-19T04:56:30.741Z,926.59
2016-11-19T04:57:41.794Z,926.64
2016-11-19T04:58:52.912Z,926.61
2016-11-19T05:00:03.936Z,926.59
2016-11-19T05:01:14.599Z,926.5
2016-11-19T05:02:25.407Z,926.48
2016-11-19T05:03:36.877Z,926.52
2016-11-19T05:04:47.622Z,926.43
2016-11-19T05:05:58.339Z,926.4
2016-11-19T05:07:09.414Z,926.36
2016-11-19T05:08:20.101Z,926.32
2016-11-19T05:09:30.785Z,926.38
2016-11-19T05:10:41.828Z,926.34
2016-11-19T05:11:53.310Z,926.34
2016-11-19T05:13:04.003Z,926.33
2016-11-19T05:14:14.655Z,926.3
2016-11-19T05:15:25.527Z,926.26
2016-11-19T05:16:36.263Z,926.27
2016-11-19T05:17:46.968Z,926.33
2016-11-19T05:18:57.635Z,926.28
2016-11-19T05:20:08.886Z,926.29
2016-11-19T05:21:19.976Z,926.35
2016-11-19T05:22:30.693Z,926.3
2016-11-19T05:23:42.187Z,926.28
2016-11-19T05:24:52.891Z,926.25
2016-11-19T05:26:04.039Z,926.33
2016-11-19T05:27:15.067Z,926.33
2016-11-19T05:28:26.145Z,926.36
2016-11-19T05:29:37.255Z,926.31
2016-11-19T05:30:47.975Z,926.28
2016-11-19T05:31:59.115Z,926.34
2016-11-19T05:33:09.874Z,926.24
2016-11-19T05:34:21.320Z,926.34
2016-11-19T05:35:32.063Z,926.3
2016-11-19T05:36:42.725Z,926.37
2016-11-19T05:37:54.000Z,926.46
2016-11-19T05:39:05.047Z,926.45
2016-11-19T05:40:16.176Z,926.45
2016-11-19T05:41:26.854Z,926.44
2016-11-19T05:42:37.581Z,926.35
2016-11-19T05:43:48.347Z,926.35
2016-11-19T05:45:00.245Z,926.33
2016-11-19T05:46:11.380Z,926.34
2016-11-19T05:47:22.471Z,926.33
2016-11-19T05:48:33.617Z,926.36
2016-11-19T05:49:44.351Z,926.42
2016-11-19T05:50:55.003Z,926.35
2016-11-19T05:52:05.697Z,926.39
2016-11-19T05:53:16.434Z,926.38
2016-11-19T05:54:27.571Z,926.41
2016-11-19T05:55:38.560Z,926.48
2016-11-19T05:56:50.071Z,926.45
2016-11-19T05:58:00.768Z,926.4
2016-11-19T05:59:11.833Z,926.48
2016-11-19T06:00:22.909Z,926.54
2016-11-19T06:01:34.079Z,926.52
2016-11-19T06:02:44.836Z,926.55
2016-11-19T06:03:56.034Z,926.56
2016-11-19T06:05:07.155Z,926.54
2016-11-19T06:06:18.252Z,926.56
2016-11-19T06:07:29.262Z,926.5
2016-11-19T06:08:40.468Z,926.52
2016-11-19T06:09:51.142Z,926.64
2016-11-19T06:11:02.264Z,926.62
2016-11-19T06:12:12.928Z,926.64
2016-11-19T06:13:23.626Z,926.63
2016-11-19T06:14:34.339Z,926.66
2016-11-19T06:15:45.032Z,926.65
2016-11-19T06:16:56.097Z,926.6
2016-11-19T06:18:06.788Z,926.66
2016-11-19T06:19:18.350Z,926.64
2016-11-19T06:20:29.443Z,926.68
2016-11-19T06:21:40.157Z,926.65
2016-11-19T06:22:50.868Z,926.66
2016-11-19T06:24:01.600Z,926.56
2016-11-19T06:25:12.721Z,926.6
2016-11-19T06:26:23.775Z,926.55
2016-11-19T06:27:34.877Z,926.58
2016-11-19T06:28:46.284Z,926.59
2016-11-19T06:29:57.063Z,926.62
2016-11-19T06:31:08.208Z,926.7
2016-11-19T06:32:18.890Z,926.66
2016-11-19T06:33:29.992Z,926.71
2016-11-19T06:34:41.472Z,926.71
2016-11-19T06:35:52.180Z,926.68
2016-11-19T06:37:02.899Z,926.73
2016-11-19T06:38:13.585Z,926.73
2016-11-19T06:39:24.322Z,926.72
2016-11-19T06:40:35.371Z,926.75
2016-11-19T06:41:46.094Z,926.8
2016-11-19T06:42:57.306Z,926.74
2016-11-19T06:44:08.463Z,926.79
2016-11-19T06:45:19.197Z,926.73
2016-11-19T06:46:30.495Z,926.73
2016-11-19T06:47:41.689Z,926.76
2016-11-19T06:48:52.361Z,926.78
2016-11-19T06:50:03.111Z,926.79
2016-11-19T06:51:13.769Z,926.85
2016-11-19T06:52:24.486Z,926.82
2016-11-19T06:53:35.582Z,926.78
2016-11-19T06:54:46.688Z,926.7
2016-11-19T06:55:57.329Z,926.71
2016-11-19T06:57:08.770Z,926.71
2016-11-19T06:58:20.286Z,926.7
2016-11-19T06:59:30.946Z,926.71
2016-11-19T07:00:42.608Z,926.68
2016-11-19T07:01:53.635Z,926.63
2016-11-19T07:03:04.314Z,926.64
2016-11-19T07:04:15.344Z,926.61
2016-11-19T07:05:26.442Z,926.71
2016-11-19T07:06:37.525Z,926.72
2016-11-19T07:07:48.545Z,926.65
2016-11-19T07:08:59.282Z,926.63
2016-11-19T07:10:10.447Z,926.63
2016-11-19T07:11:21.553Z,926.6
2016-11-19T07:12:32.394Z,926.64
2016-11-19T07:13:43.110Z,926.7
2016-11-19T07:14:53.810Z,926.72
2016-11-19T07:16:04.489Z,926.69
2016-11-19T07:17:15.584Z,926.69
2016-11-19T07:18:26.692Z,926.69
2016-11-19T07:19:37.360Z,926.63
2016-11-19T07:20:48.801Z,926.57
2016-11-19T07:21:59.497Z,926.55
2016-11-19T07:23:10.194Z,926.53
2016-11-19T07:24:21.002Z,926.57
2016-11-19T07:25:31.666Z,926.59
2016-11-19T07:26:42.806Z,926.57
2016-11-19T07:27:53.516Z,926.55
2016-11-19T07:29:04.230Z,926.59
2016-11-19T07:30:14.917Z,926.53
2016-11-19T07:31:25.530Z,926.55
2016-11-19T07:32:36.236Z,926.54
2016-11-19T07:33:46.880Z,926.55
2016-11-19T07:34:57.589Z,926.52
2016-11-19T07:36:08.804Z,926.55
2016-11-19T07:37:19.469Z,926.56
2016-11-19T07:38:30.613Z,926.57
2016-11-19T07:39:42.092Z,926.62
2016-11-19T07:40:52.808Z,926.66
2016-11-19T07:42:03.487Z,926.62
2016-11-19T07:43:14.393Z,926.67
2016-11-19T07:44:25.088Z,926.62
2016-11-19T07:45:36.132Z,926.69
2016-11-19T07:46:46.882Z,926.74
2016-11-19T07:47:57.566Z,926.75
2016-11-19T07:49:08.697Z,926.83
2016-11-19T07:50:20.199Z,926.82
2016-11-19T07:51:30.900Z,926.82
2016-11-19T07:52:41.984Z,926.84
2016-11-19T07:53:52.897Z,926.81
2016-11-19T07:55:03.920Z,926.82
2016-11-19T07:56:14.567Z,926.87
2016-11-19T07:57:25.986Z,926.87
2016-11-19T07:58:37.416Z,926.92
2016-11-19T07:59:48.264Z,926.94
2016-11-19T08:00:59.360Z,926.93
2016-11-19T08:02:10.102Z,926.85
2016-11-19T08:03:20.784Z,926.76
2016-11-19T08:04:31.848Z,926.76
2016-11-19T08:05:42.559Z,926.78
2016-11-19T08:06:54.095Z,926.77
2016-11-19T08:08:04.771Z,926.73
2016-11-19T08:09:15.449Z,926.83
2016-11-19T08:10:26.186Z,926.85
2016-11-19T08:11:37.376Z,926.84
2016-11-19T08:12:48.046Z,926.75
2016-11-19T08:13:58.723Z,926.82
2016-11-19T08:15:09.797Z,926.91
2016-11-19T08:16:21.794Z,926.9
2016-11-19T08:17:32.877Z,926.9
2016-11-19T08:18:43.628Z,926.89
2016-11-19T08:19:54.286Z,926.89
2016-11-19T08:21:05.448Z,926.96
2016-11-19T08:22:16.700Z,927
2016-11-19T08:23:27.839Z,927.07
2016-11-19T08:24:38.957Z,927.12
2016-11-19T08:25:49.656Z,927.12
2016-11-19T08:27:00.423Z,927.22
2016-11-19T08:28:11.096Z,927.25
2016-11-19T08:29:22.628Z,927.24
2016-11-19T08:30:33.359Z,927.2
2016-11-19T08:31:44.456Z,927.19
2016-11-19T08:32:55.558Z,927.17
2016-11-19T08:34:06.252Z,927.2
2016-11-19T08:35:17.057Z,927.19
2016-11-19T08:36:28.225Z,927.17
2016-11-19T08:37:39.276Z,927.24
2016-11-19T08:38:50.347Z,927.21
2016-11-19T08:40:01.883Z,927.19
2016-11-19T08:41:12.561Z,927.23
2016-11-19T08:42:23.632Z,927.19
2016-11-19T08:43:34.245Z,927.17
2016-11-19T08:44:45.747Z,927.2
2016-11-19T08:45:56.844Z,927.19
2016-11-19T08:47:07.527Z,927.22
2016-11-19T08:48:18.851Z,927.27
2016-11-19T08:49:29.510Z,927.29
2016-11-19T08:50:40.156Z,927.39
2016-11-19T08:51:51.170Z,927.44
2016-11-19T08:53:01.980Z,927.48
2016-11-19T08:54:12.672Z,927.48
2016-11-19T08:55:24.160Z,927.46
2016-11-19T08:56:34.837Z,927.48
2016-11-19T08:57:45.898Z,927.44
2016-11-19T08:58:56.594Z,927.37
2016-11-19T09:00:07.371Z,927.38
2016-11-19T09:01:18.054Z,927.38
2016-11-19T09:02:28.733Z,927.37
2016-11-19T09:03:39.449Z,927.37
2016-11-19T09:04:50.588Z,927.38
2016-11-19T09:06:02.059Z,927.38
2016-11-19T09:07:13.543Z,927.43
2016-11-19T09:08:25.029Z,927.41
2016-11-19T09:09:35.800Z,927.4
2016-11-19T09:10:46.575Z,927.44
2016-11-19T09:11:58.093Z,927.56
2016-11-19T09:13:09.662Z,927.64
2016-11-19T09:14:20.375Z,927.57
2016-11-19T09:15:32.178Z,927.74
2016-11-19T09:16:43.346Z,927.69
2016-11-19T09:17:54.056Z,927.79
2016-11-19T09:19:04.740Z,927.67
2016-11-19T09:20:15.553Z,927.64
2016-11-19T09:21:27.017Z,927.65
2016-11-19T09:22:37.765Z,927.73
2016-11-19T09:23:49.607Z,927.8
2016-11-19T09:25:00.354Z,927.77
2016-11-19T09:26:11.092Z,927.88
2016-11-19T09:27:22.217Z,928.09
2016-11-19T09:28:33.436Z,928.07
2016-11-19T09:29:44.134Z,928.03
2016-11-19T09:30:54.863Z,927.99
2016-11-19T09:32:05.913Z,927.96
2016-11-19T09:33:17.040Z,927.99
2016-11-19T09:34:27.744Z,927.93
2016-11-19T09:35:38.508Z,927.95
2016-11-19T09:36:49.670Z,928.02
2016-11-19T09:38:00.792Z,927.99
2016-11-19T09:39:11.450Z,927.88
2016-11-19T09:40:22.622Z,927.86
2016-11-19T09:41:33.709Z,927.92
2016-11-19T09:42:44.769Z,927.93
2016-11-19T09:43:55.507Z,927.99
2016-11-19T09:45:06.969Z,927.97
2016-11-19T09:46:17.688Z,927.92
2016-11-19T09:47:28.334Z,927.89
2016-11-19T09:48:39.864Z,927.93
2016-11-19T09:49:50.521Z,927.96
2016-11-19T09:51:01.233Z,927.94
2016-11-19T09:52:11.991Z,927.95
2016-11-19T09:53:23.104Z,928.01
2016-11-19T09:54:34.179Z,928.09
2016-11-19T09:55:46.302Z,928.15
2016-11-19T09:56:57.015Z,928.22
2016-11-19T09:58:08.281Z,928.16
2016-11-19T09:59:18.989Z,928.22
2016-11-19T10:00:29.674Z,928.25
2016-11-19T10:01:40.305Z,928.29
2016-11-19T10:02:51.031Z,928.22
2016-11-19T10:05:47.850Z,928.39
2016-11-19T10:06:59.400Z,928.41
2016-11-19T10:08:10.113Z,928.38
2016-11-19T10:09:21.832Z,928.35
2016-11-19T10:10:32.542Z,928.39
2016-11-19T10:11:43.650Z,928.44
2016-11-19T10:12:54.921Z,928.47
2016-11-19T10:14:05.950Z,928.52
2016-11-19T10:15:16.752Z,928.6
2016-11-19T10:16:27.460Z,928.63
2016-11-19T10:17:38.175Z,928.63
2016-11-19T10:18:48.857Z,928.59
2016-11-19T10:20:00.908Z,928.72
2016-11-19T10:21:11.627Z,928.82
2016-11-19T10:22:22.726Z,928.72
2016-11-19T10:23:34.562Z,928.78
2016-11-19T10:24:45.595Z,928.77
2016-11-19T10:25:56.669Z,928.96
2016-11-19T10:27:07.354Z,928.83
2016-11-19T10:28:18.026Z,928.76
2016-11-19T10:29:29.167Z,928.92
2016-11-19T10:30:39.906Z,928.98
2016-11-19T10:31:51.071Z,928.85
2016-11-19T10:33:01.906Z,928.83
2016-11-19T10:34:13.058Z,928.88
2016-11-19T10:35:24.108Z,929.13
2016-11-19T10:36:34.824Z,928.99
2016-11-19T10:37:45.883Z,929.11
2016-11-19T10:38:56.625Z,930.75
2016-11-19T10:40:07.346Z,929.59
2016-11-19T10:41:18.037Z,929.82
2016-11-19T10:42:29.108Z,934.24
2016-11-19T10:43:40.553Z,929.83
2016-11-19T10:44:51.251Z,929
2016-11-19T10:46:02.478Z,928.98
2016-11-19T10:47:14.128Z,928.96
2016-11-19T10:48:25.658Z,929.05
2016-11-19T10:49:36.797Z,929.06
2016-11-19T10:50:47.610Z,929.08
2016-11-19T10:51:58.344Z,929.08
2016-11-19T10:53:09.498Z,929.07
2016-11-19T10:54:20.602Z,929.72
2016-11-19T10:55:31.313Z,930.31
2016-11-19T10:56:42.541Z,929.86
2016-11-19T10:57:53.171Z,929.66
2016-11-19T10:59:04.281Z,929.41
2016-11-19T11:00:15.053Z,929.13
2016-11-19T11:01:25.786Z,929.14
2016-11-19T11:02:37.024Z,929.38
2016-11-19T11:03:48.071Z,929.71
2016-11-19T11:04:59.152Z,929.2
2016-11-19T11:06:09.861Z,928.97
2016-11-19T11:07:20.625Z,928.97
2016-11-19T11:08:31.384Z,929.17
2016-11-19T11:09:42.129Z,929.08
2016-11-19T11:10:53.251Z,928.94
2016-11-19T11:12:03.980Z,928.95
2016-11-19T11:13:14.652Z,928.95
2016-11-19T11:14:25.413Z,929.19
2016-11-19T11:15:36.159Z,929.04
2016-11-19T11:16:46.887Z,929
2016-11-19T11:17:57.643Z,929
2016-11-19T11:19:08.370Z,928.89
2016-11-19T11:20:19.527Z,928.98
2016-11-19T11:21:30.616Z,928.94
2016-11-19T11:22:41.321Z,929.02
2016-11-19T11:23:52.086Z,929.14
2016-11-19T11:25:03.178Z,929.33
2016-11-19T11:26:13.861Z,929.86
2016-11-19T11:27:25.381Z,929.46
2016-11-19T11:28:36.498Z,929.25
2016-11-19T11:29:47.556Z,929.16
2016-11-19T11:30:58.271Z,929.14
2016-11-19T11:32:09.615Z,929.14
2016-11-19T11:33:20.373Z,929.13
2016-11-19T11:34:31.084Z,929.24
2016-11-19T11:35:42.541Z,929.13
2016-11-19T11:36:53.200Z,929.16
2016-11-19T11:38:04.459Z,929.16
2016-11-19T11:39:15.142Z,929.1
2016-11-19T11:40:25.839Z,929.07
2016-11-19T11:41:36.492Z,929.06
2016-11-19T11:42:47.113Z,929.12
2016-11-19T11:43:58.229Z,929.23
2016-11-19T11:45:08.934Z,929.24
2016-11-19T11:46:21.313Z,929.35
2016-11-19T11:47:31.955Z,929.19
2016-11-19T11:48:42.683Z,929.16
2016-11-19T11:49:53.946Z,929.18
2016-11-19T11:51:04.588Z,929.33
2016-11-19T11:52:15.245Z,929.66
2016-11-19T11:53:25.960Z,929.55
2016-11-19T11:54:36.684Z,929.52
2016-11-19T11:55:47.451Z,929.4
2016-11-19T11:56:58.123Z,929.73
2016-11-19T11:58:08.801Z,930.43
2016-11-19T11:59:20.247Z,929.87
2016-11-19T12:00:31.679Z,929.65
2016-11-19T12:01:42.848Z,929.61
2016-11-19T12:02:53.522Z,929.72
2016-11-19T12:04:04.289Z,931.88
2016-11-19T12:05:15.427Z,940.76
2016-11-19T12:06:26.472Z,930.05
2016-11-19T12:07:37.714Z,929.76
2016-11-19T12:08:48.401Z,930.31
2016-11-19T12:09:59.121Z,929.8
2016-11-19T12:11:09.831Z,930.61
2016-11-19T12:12:21.333Z,929.77
2016-11-19T12:13:32.032Z,929.8
2016-11-19T12:14:43.133Z,930.35
2016-11-19T12:15:53.913Z,930.83
2016-11-19T12:17:04.623Z,931.14
2016-11-19T12:18:15.721Z,932.39
2016-11-19T12:19:26.999Z,930.94
2016-11-19T12:20:37.717Z,929.96
2016-11-19T12:21:48.413Z,930.32
2016-11-19T12:22:59.123Z,938.61
2016-11-19T12:24:09.860Z,930.3
2016-11-19T12:25:20.672Z,931.76
2016-11-19T12:26:31.418Z,934.28
2016-11-19T12:27:42.137Z,935.03
2016-11-19T12:28:52.791Z,929.86
2016-11-19T12:30:03.522Z,934.65
2016-11-19T12:31:14.231Z,934.83
2016-11-19T12:32:24.930Z,933.96
2016-11-19T12:33:36.554Z,933.72
2016-11-19T12:34:47.640Z,932.9
2016-11-19T12:35:58.530Z,930
2016-11-19T12:37:10.069Z,931.33
2016-11-19T12:38:20.801Z,930.36
2016-11-19T12:39:31.492Z,930.37
2016-11-19T12:40:42.540Z,930.09
2016-11-19T12:41:53.260Z,929.87
2016-11-19T12:43:04.083Z,929.97
2016-11-19T12:44:14.806Z,930.02
2016-11-19T12:45:25.576Z,929.98
2016-11-19T12:46:36.665Z,930.45
2016-11-19T12:47:47.408Z,930.31
2016-11-19T12:48:58.503Z,930.4
2016-11-19T12:50:09.207Z,931.69
2016-11-19T12:51:20.355Z,930.78
2016-11-19T12:52:31.088Z,931.02
2016-11-19T12:53:42.194Z,931.94
2016-11-19T12:54:53.198Z,931.63
2016-11-19T12:56:03.910Z,931.79
2016-11-19T12:57:15.030Z,930.52
2016-11-19T12:58:26.524Z,930.55
2016-11-19T12:59:37.195Z,930.15
2016-11-19T13:00:47.882Z,930.08
2016-11-19T13:01:58.592Z,929.82
2016-11-19T13:03:09.602Z,929.75
2016-11-19T13:04:20.374Z,929.7
2016-11-19T13:05:31.405Z,929.8
2016-11-19T13:06:42.541Z,929.98
2016-11-19T13:07:53.585Z,930.03
2016-11-19T13:09:04.271Z,930.02
2016-11-19T13:10:14.937Z,930.06
2016-11-19T13:11:26.476Z,930.13
2016-11-19T13:12:37.292Z,930.16
2016-11-19T13:13:48.021Z,930.28
2016-11-19T13:14:59.145Z,930.29
2016-11-19T13:16:09.870Z,930.46
2016-11-19T13:17:21.397Z,930.7
2016-11-19T13:18:32.952Z,930.99
2016-11-19T13:19:43.637Z,930.57
2016-11-19T13:20:54.811Z,930.28
2016-11-19T13:22:05.401Z,930.6
2016-11-19T13:23:16.117Z,930.35
2016-11-19T13:24:27.391Z,930.28
2016-11-19T13:25:38.150Z,930.2
2016-11-19T13:26:49.462Z,930.05
2016-11-19T13:28:00.922Z,930.05
2016-11-19T13:29:12.268Z,930.14
2016-11-19T13:30:23.021Z,930.01
2016-11-19T13:31:34.731Z,930.32
2016-11-19T13:32:45.795Z,930.13
2016-11-19T13:33:56.845Z,930.35
2016-11-19T13:35:07.518Z,930.37
2016-11-19T13:36:18.524Z,930.16
2016-11-19T13:37:29.902Z,930.35
2016-11-19T13:38:41.973Z,930.39
2016-11-19T13:39:53.125Z,930.15
2016-11-19T13:41:03.793Z,930.11
2016-11-19T13:42:14.441Z,930.24
2016-11-19T13:43:25.208Z,930.09
2016-11-19T13:44:35.879Z,930.07
2016-11-19T13:45:47.042Z,930.02
2016-11-19T13:46:57.719Z,930.06
2016-11-19T13:48:08.614Z,929.94
2016-11-19T13:49:19.352Z,930.28
2016-11-19T13:50:30.043Z,930.04
2016-11-19T13:51:41.162Z,930.17
2016-11-19T13:52:51.880Z,930.07
2016-11-19T13:54:03.204Z,930.13
2016-11-19T13:55:14.290Z,930.54
2016-11-19T13:56:25.035Z,930.4
2016-11-19T13:57:35.714Z,930.48
2016-11-19T13:58:46.476Z,929.86
2016-11-19T13:59:57.209Z,929.8
2016-11-19T14:01:08.888Z,929.94
2016-11-19T14:02:20.006Z,930.28
2016-11-19T14:03:30.708Z,930.06
2016-11-19T14:04:41.377Z,930.1
2016-11-19T14:05:52.203Z,930.21
2016-11-19T14:07:03.687Z,930.57
2016-11-19T14:08:14.393Z,930.56
2016-11-19T14:09:25.855Z,930.16
2016-11-19T14:10:37.124Z,929.9
2016-11-19T14:11:47.954Z,929.97
2016-11-19T14:12:59.014Z,929.98
2016-11-19T14:14:10.297Z,930.15
2016-11-19T14:15:20.991Z,930.28
2016-11-19T14:16:32.137Z,930.24
2016-11-19T14:17:43.214Z,929.96
2016-11-19T14:18:54.321Z,929.99
2016-11-19T14:20:05.026Z,929.87
2016-11-19T14:21:16.481Z,929.89
2016-11-19T14:22:27.284Z,929.86
2016-11-19T14:23:38.099Z,929.91
2016-11-19T14:24:49.200Z,930.03
2016-11-19T14:26:00.239Z,930.18
2016-11-19T14:27:11.289Z,930.25
2016-11-19T14:28:22.067Z,930.28
2016-11-19T14:29:33.564Z,930.2
2016-11-19T14:30:44.250Z,930.09
2016-11-19T14:31:55.347Z,930.06
2016-11-19T14:33:06.462Z,930.1
2016-11-19T14:34:17.585Z,930.2
2016-11-19T14:35:28.332Z,930.32
2016-11-19T14:36:39.148Z,930.26
2016-11-19T14:37:49.846Z,930.03
2016-11-19T14:39:00.528Z,930.21
2016-11-19T14:40:11.254Z,930.28
2016-11-19T14:41:22.076Z,930.2
2016-11-19T14:42:33.200Z,930.3
2016-11-19T14:43:43.904Z,930.05
2016-11-19T14:44:55.045Z,930
2016-11-19T14:46:06.139Z,929.81
2016-11-19T14:47:17.321Z,929.76
2016-11-19T14:48:28.071Z,929.77
2016-11-19T14:49:39.607Z,929.71
2016-11-19T14:50:50.337Z,929.6
2016-11-19T14:52:01.037Z,929.72
2016-11-19T14:53:11.904Z,929.75
2016-11-19T14:54:22.660Z,929.78
2016-11-19T14:55:33.357Z,929.8
2016-11-19T14:56:43.986Z,929.75
2016-11-19T14:57:55.653Z,929.73
2016-11-19T14:59:06.530Z,929.57